createdAt,value
2019-02-17T00:04:42.574Z,14.47
2019-02-17T00:10:37.564Z,18.96
2019-02-17T00:16:32.580Z,12.91
2019-02-17T00:22:27.585Z,13.61
2019-02-17T00:28:22.629Z,13.62
2019-02-17T00:34:17.617Z,26.33
2019-02-17T00:40:12.588Z,16.06
2019-02-17T00:46:07.571Z,23.69
2019-02-17T00:52:02.598Z,12.68
2019-02-17T00:57:57.582Z,13.93
2019-02-17T01:03:52.610Z,20.55
2019-02-17T01:09:47.606Z,16.75
2019-02-17T01:15:42.591Z,18.5
2019-02-17T01:21:37.569Z,13.01
2019-02-17T01:27:32.614Z,17.23
2019-02-17T01:33:27.615Z,16.65
2019-02-17T01:39:22.597Z,14.13
2019-02-17T01:45:17.633Z,14.51
2019-02-17T01:51:12.604Z,10.99
2019-02-17T01:57:07.617Z,6.57
2019-02-17T02:03:02.601Z,9.95
2019-02-17T02:08:57.604Z,16.63
2019-02-17T02:14:52.602Z,11.73
2019-02-17T02:20:47.604Z,12.97
2019-02-17T02:26:43.811Z,13.66
2019-02-17T02:32:37.594Z,12.78
2019-02-17T02:38:32.631Z,15.26
2019-02-17T02:44:27.627Z,21.61
2019-02-17T02:50:22.611Z,11.69
2019-02-17T02:56:17.666Z,5.72
2019-02-17T03:02:12.632Z,8.69
2019-02-17T03:08:07.601Z,7.71
2019-02-17T03:14:02.600Z,14.86
2019-02-17T03:19:57.617Z,19.17
2019-02-17T03:25:52.653Z,103.8
2019-02-17T03:31:47.620Z,19.38
2019-02-17T03:37:42.624Z,16.87
2019-02-17T03:43:37.603Z,20.58
2019-02-17T03:49:32.618Z,11.67
2019-02-17T03:55:27.709Z,9.31
2019-02-17T04:01:22.640Z,11
2019-02-17T04:07:17.636Z,17.17
2019-02-17T04:13:12.669Z,19.61
2019-02-17T04:19:07.632Z,13.68
2019-02-17T04:25:02.694Z,12.74
2019-02-17T04:30:57.646Z,22.35
2019-02-17T04:36:52.657Z,30.02
2019-02-17T04:42:47.652Z,24.96
2019-02-17T04:48:42.654Z,20.95
2019-02-17T04:54:37.620Z,27.43
2019-02-17T05:00:39.969Z,31.12
2019-02-17T05:06:27.638Z,24.01
2019-02-17T05:12:22.631Z,17.3
2019-02-17T05:18:17.645Z,27.86
2019-02-17T05:24:12.704Z,41.62
2019-02-17T05:30:07.743Z,50.5
2019-02-17T05:36:02.668Z,31
2019-02-17T05:41:57.658Z,23.68
2019-02-17T05:47:52.694Z,41.89
2019-02-17T05:53:47.703Z,31.35
2019-02-17T05:59:42.657Z,45.32
2019-02-17T06:05:37.729Z,42.72
2019-02-17T06:11:32.778Z,31.8
2019-02-17T06:17:27.682Z,37.06
2019-02-17T06:23:22.681Z,29.95
2019-02-17T06:29:17.654Z,26.4
2019-02-17T06:35:12.677Z,29.05
2019-02-17T06:41:07.735Z,26.32
2019-02-17T06:47:02.693Z,27.82
2019-02-17T06:52:57.701Z,30.5
2019-02-17T06:58:52.714Z,23.08
2019-02-17T07:04:47.719Z,124.27
2019-02-17T07:10:42.665Z,46.7
2019-02-17T07:16:37.655Z,34.64
2019-02-17T07:22:32.672Z,42.85
2019-02-17T07:28:27.682Z,41.76
2019-02-17T07:34:22.667Z,82.79
2019-02-17T07:40:17.712Z,53.37
2019-02-17T07:46:12.681Z,33.59
2019-02-17T07:52:07.705Z,33.46
2019-02-17T07:58:02.681Z,23.8
2019-02-17T08:03:57.705Z,19.83
2019-02-17T08:09:52.729Z,19.71
2019-02-17T08:15:47.731Z,20.33
2019-02-17T08:21:42.692Z,20.44
2019-02-17T08:27:37.718Z,28.93
2019-02-17T08:33:32.720Z,26.92
2019-02-17T08:39:27.691Z,23.2
2019-02-17T08:45:22.689Z,23.29
2019-02-17T08:51:17.684Z,20.42
2019-02-17T08:57:12.727Z,21.93
2019-02-17T09:03:07.715Z,28.9
2019-02-17T09:09:02.817Z,26.87
2019-02-17T09:14:57.764Z,25.57
2019-02-17T09:20:52.703Z,27.7
2019-02-17T09:26:47.713Z,31.14
2019-02-17T09:32:42.717Z,29.8
2019-02-17T09:38:37.706Z,28.14
2019-02-17T09:44:32.720Z,25.32
2019-02-17T09:50:27.706Z,27.15
2019-02-17T09:56:22.765Z,25.87
2019-02-17T10:02:26.182Z,31.5
2019-02-17T10:08:12.714Z,23.27
2019-02-17T10:14:07.734Z,24.48
2019-02-17T10:20:02.723Z,23.16
2019-02-17T10:25:57.780Z,27.2
2019-02-17T10:31:52.713Z,25.64
2019-02-17T10:37:48.002Z,26.39
2019-02-17T10:43:42.702Z,31.37
2019-02-17T10:49:37.788Z,22.17
2019-02-17T10:55:32.743Z,26.89
2019-02-17T11:01:27.774Z,23.68
2019-02-17T11:07:22.715Z,25.44
2019-02-17T11:13:17.734Z,27.45
2019-02-17T11:19:12.745Z,26.99
2019-02-17T11:25:07.769Z,32.56
2019-02-17T11:31:02.740Z,33.56
2019-02-17T11:36:57.728Z,36.67
2019-02-17T11:42:52.829Z,34.14
2019-02-17T11:48:47.716Z,29.24
2019-02-17T11:54:42.735Z,30.56
2019-02-17T12:00:37.728Z,35.29
2019-02-17T12:06:32.724Z,30.91
2019-02-17T12:12:27.740Z,35.44
2019-02-17T12:18:22.734Z,41.63
2019-02-17T12:24:17.799Z,44.38
2019-02-17T12:30:12.757Z,42.12
2019-02-17T12:36:07.742Z,33.05
2019-02-17T12:42:02.772Z,35.51
2019-02-17T12:47:58.517Z,35.14
2019-02-17T12:53:52.748Z,36.26
2019-02-17T12:59:47.755Z,32.89
2019-02-17T13:05:42.784Z,32.84
2019-02-17T13:11:37.792Z,32.33
2019-02-17T13:17:32.758Z,32.05
2019-02-17T13:23:27.801Z,26.33
2019-02-17T13:29:22.850Z,28.21
2019-02-17T13:35:17.786Z,27.74
2019-02-17T13:41:12.773Z,31.67
2019-02-17T13:47:07.838Z,31.02
2019-02-17T13:53:11.248Z,30.85
2019-02-17T13:58:57.771Z,31.15
2019-02-17T14:04:52.791Z,30.8
2019-02-17T14:10:47.778Z,23.92
2019-02-17T14:16:42.827Z,34.71
2019-02-17T14:22:37.784Z,32.01
2019-02-17T14:28:32.800Z,26.3
2019-02-17T14:34:27.815Z,30.93
2019-02-17T14:40:22.853Z,30.73
2019-02-17T14:46:17.797Z,29.13
2019-02-17T14:52:12.829Z,34.64
2019-02-17T14:58:07.828Z,28.47
2019-02-17T15:04:08.602Z,35.34
2019-02-17T15:09:57.796Z,35.35
2019-02-17T15:15:52.789Z,29.7
2019-02-17T15:21:47.832Z,35.84
2019-02-17T15:27:42.816Z,28.32
2019-02-17T15:33:37.786Z,27.63
2019-02-17T15:39:32.791Z,31.22
2019-02-17T15:45:27.792Z,43.35
2019-02-17T15:51:22.849Z,29.9
2019-02-17T15:57:17.840Z,37.74
2019-02-17T16:03:12.805Z,44.55
2019-02-17T16:09:07.857Z,46.43
2019-02-17T16:15:02.819Z,44.19
2019-02-17T16:20:57.829Z,53.63
2019-02-17T16:26:52.805Z,53.1
2019-02-17T16:32:48.067Z,57.85
2019-02-17T16:38:42.817Z,35.51
2019-02-17T16:44:37.851Z,37.1
2019-02-17T16:50:32.816Z,36.39
2019-02-17T16:56:27.827Z,42.29
2019-02-17T17:02:22.851Z,49.62
2019-02-17T17:08:17.882Z,42.52
2019-02-17T17:14:12.839Z,46
2019-02-17T17:20:07.827Z,90.7
2019-02-17T17:26:02.837Z,134.42
2019-02-17T17:31:57.834Z,101.18
2019-02-17T17:37:52.833Z,84.71
2019-02-17T17:43:48.003Z,80.42
2019-02-17T17:49:42.834Z,112
2019-02-17T17:55:37.837Z,74.18
2019-02-17T18:01:32.824Z,50.41
2019-02-17T18:07:27.879Z,91.47
2019-02-17T18:13:22.841Z,75.9
2019-02-17T18:19:17.892Z,78.38
2019-02-17T18:25:12.859Z,58.88
2019-02-17T18:31:07.844Z,71.02
2019-02-17T18:37:02.918Z,62.42
2019-02-17T18:42:57.842Z,53.47
2019-02-17T18:48:52.882Z,41.89
2019-02-17T18:54:47.858Z,51.7
2019-02-17T19:00:42.854Z,51.86
2019-02-17T19:06:37.841Z,80.72
2019-02-17T19:12:32.879Z,83.51
2019-02-17T19:18:27.850Z,47.26
2019-02-17T19:24:22.859Z,54.97
2019-02-17T19:30:17.834Z,74.99
2019-02-17T19:36:12.975Z,80.36
2019-02-17T19:42:07.835Z,59.45
2019-02-17T19:48:02.883Z,92.02
2019-02-17T19:53:57.861Z,67.49
2019-02-17T19:59:52.892Z,55.93
2019-02-17T20:05:51.804Z,52.9
2019-02-17T20:11:42.857Z,45.78
2019-02-17T20:17:37.879Z,48.15
2019-02-17T20:23:32.925Z,46.5
2019-02-17T20:29:27.873Z,61.91
2019-02-17T20:35:22.879Z,86.11
2019-02-17T20:41:17.857Z,98.37
2019-02-17T20:47:12.862Z,184.44
2019-02-17T20:53:07.905Z,78.66
2019-02-17T20:59:02.885Z,79.49
2019-02-17T21:04:57.910Z,57.72
2019-02-17T21:10:52.865Z,57
2019-02-17T21:16:47.859Z,55.39
2019-02-17T21:22:42.867Z,41.23
2019-02-17T21:28:37.891Z,61.89
2019-02-17T21:34:32.890Z,48.49
2019-02-17T21:40:27.874Z,49.36
2019-02-17T21:46:22.858Z,55.6
2019-02-17T21:52:17.871Z,65.56
2019-02-17T21:58:12.886Z,60.93
2019-02-17T22:04:07.995Z,51.59
2019-02-17T22:10:03.023Z,56.12
2019-02-17T22:15:57.930Z,63.17
2019-02-17T22:21:52.897Z,69.68
2019-02-17T22:27:47.875Z,49.71
2019-02-17T22:33:42.895Z,44.11
2019-02-17T22:39:37.964Z,38.15
2019-02-17T22:45:32.889Z,47.46
2019-02-17T22:51:27.897Z,47.88
2019-02-17T22:57:22.880Z,34
2019-02-17T23:03:17.913Z,37.98
2019-02-17T23:09:12.948Z,35.36
2019-02-17T23:15:07.921Z,37.03
2019-02-17T23:21:02.912Z,78.43
2019-02-17T23:26:57.887Z,60.68
2019-02-17T23:32:52.910Z,54.83
2019-02-17T23:38:47.903Z,57.49
2019-02-17T23:44:42.916Z,53.08
2019-02-17T23:50:37.951Z,41.25
2019-02-17T23:56:32.895Z,70.37
